createdAt,value
2019-05-25T00:04:43.993Z,68.7
2019-05-25T00:09:43.964Z,68.9
2019-05-25T00:14:43.936Z,68.7
2019-05-25T00:19:44.262Z,68.4
2019-05-25T00:24:44.031Z,68.5
2019-05-25T00:29:45.306Z,68.5
2019-05-25T00:34:44.948Z,68.3
2019-05-25T00:39:45.687Z,68.9
2019-05-25T00:44:46.271Z,68.7
2019-05-25T00:49:46.575Z,68.4
2019-05-25T00:54:50.949Z,68.4
2019-05-25T00:59:50.888Z,68.7
2019-05-25T01:04:51.090Z,68.8
2019-05-25T01:09:53.973Z,68.6
2019-05-25T01:14:53.886Z,68.7
2019-05-25T01:19:53.888Z,69.5
2019-05-25T01:24:53.877Z,69.8
2019-05-25T01:29:54.520Z,70.1
2019-05-25T01:34:53.869Z,70.1
2019-05-25T01:39:55.100Z,70.1
2019-05-25T01:44:56.902Z,70.2
2019-05-25T01:49:57.328Z,70.5
2019-05-25T01:54:59.697Z,70.9
2019-05-25T01:59:57.207Z,71.2
2019-05-25T02:04:57.186Z,71.3
2019-05-25T02:09:57.881Z,71.5
2019-05-25T02:14:58.565Z,71.6
2019-05-25T02:19:59.276Z,71.9
2019-05-25T02:25:14.373Z,72.2
2019-05-25T02:29:59.126Z,72.4
2019-05-25T02:34:59.749Z,72.4
2019-05-25T02:40:00.605Z,72.6
2019-05-25T02:45:02.671Z,73
2019-05-25T02:49:59.132Z,73.1
2019-05-25T02:54:59.589Z,73.3
2019-05-25T02:59:59.323Z,73.5
2019-05-25T03:05:01.404Z,73.9
2019-05-25T03:10:09.817Z,73.8
2019-05-25T03:15:12.896Z,74
2019-05-25T03:20:12.911Z,74.3
2019-05-25T03:25:12.909Z,74.3
2019-05-25T03:30:13.676Z,74.6
2019-05-25T03:35:13.997Z,74.8
2019-05-25T03:40:14.711Z,75
2019-05-25T03:45:14.631Z,75.2
2019-05-25T03:50:15.714Z,75.4
2019-05-25T03:55:15.897Z,75.9
2019-05-25T04:00:15.941Z,76.1
2019-05-25T04:05:16.697Z,76.3
2019-05-25T04:10:16.818Z,76.4
2019-05-25T04:15:17.747Z,76.5
2019-05-25T04:20:19.286Z,76.6
2019-05-25T04:25:21.294Z,77.1
2019-05-25T04:30:32.300Z,77.1
2019-05-25T04:35:21.156Z,77.3
2019-05-25T04:40:23.351Z,77.5
2019-05-25T04:45:22.497Z,77.6
2019-05-25T04:50:24.752Z,77.8
2019-05-25T04:55:24.026Z,78.1
2019-05-25T05:00:25.811Z,78.7
2019-05-25T05:05:26.184Z,78.5
2019-05-25T05:10:29.234Z,78.6
2019-05-25T05:15:29.548Z,78.1
2019-05-25T05:20:29.586Z,78
2019-05-25T05:25:29.783Z,78.7
2019-05-25T05:30:29.757Z,78.1
2019-05-25T05:35:31.302Z,77.9
2019-05-25T05:40:33.920Z,77.4
2019-05-25T05:45:33.469Z,77.1
2019-05-25T05:50:34.350Z,76.8
2019-05-25T05:55:34.037Z,77.2
2019-05-25T06:00:34.578Z,77.5
2019-05-25T06:05:33.765Z,76.9
2019-05-25T06:10:34.492Z,76.2
2019-05-25T06:15:35.341Z,76.2
2019-05-25T06:20:33.513Z,76.3
2019-05-25T06:25:33.664Z,76.2
2019-05-25T06:30:33.514Z,76.3
2019-05-25T06:35:33.465Z,76.7
2019-05-25T06:40:33.552Z,76.2
2019-05-25T06:45:35.837Z,75.8
2019-05-25T06:50:35.816Z,75.8
2019-05-25T06:55:35.855Z,75.3
2019-05-25T07:00:35.854Z,74.3
2019-05-25T07:05:35.836Z,74.8
2019-05-25T07:10:35.981Z,74.3
2019-05-25T07:15:35.870Z,74.4
2019-05-25T07:20:35.871Z,74.4
2019-05-25T07:25:35.888Z,74
2019-05-25T07:31:06.743Z,72.4
2019-05-25T07:35:37.787Z,72.8
2019-05-25T07:40:42.546Z,72.6
2019-05-25T07:45:42.870Z,71
2019-05-25T07:50:43.164Z,69.7
2019-05-25T07:55:43.090Z,68.7
2019-05-25T08:00:43.149Z,68.8
2019-05-25T08:05:43.402Z,68.1
2019-05-25T08:10:44.062Z,66.1
2019-05-25T08:15:44.014Z,67.9
2019-05-25T08:20:46.955Z,65.3
2019-05-25T08:25:45.202Z,64.2
2019-05-25T08:30:45.153Z,64.5
2019-05-25T08:35:46.477Z,63.6
2019-05-25T08:40:45.431Z,63
2019-05-25T08:45:45.375Z,61.6
2019-05-25T08:50:45.357Z,59.1
2019-05-25T08:55:45.380Z,59.4
2019-05-25T09:00:45.495Z,58.9
2019-05-25T09:05:45.359Z,59.6
2019-05-25T09:10:45.518Z,58.6
2019-05-25T09:15:45.405Z,59.7
2019-05-25T09:20:45.489Z,59.9
2019-05-25T09:25:45.428Z,59.9
2019-05-25T09:30:45.390Z,58.6
2019-05-25T09:35:45.411Z,58.2
2019-05-25T09:40:45.430Z,57.8
2019-05-25T09:45:45.368Z,56.3
2019-05-25T09:50:45.465Z,55.2
2019-05-25T09:55:45.437Z,54.5
2019-05-25T10:00:45.484Z,52
2019-05-25T10:05:45.430Z,53.3
2019-05-25T10:10:45.453Z,54
2019-05-25T10:15:47.944Z,54.3
2019-05-25T10:20:47.940Z,49.6
2019-05-25T10:25:52.873Z,50.6
2019-05-25T10:30:53.142Z,48.4
2019-05-25T10:35:53.075Z,51.2
2019-05-25T10:40:53.085Z,50.9
2019-05-25T10:45:53.876Z,50
2019-05-25T10:50:54.367Z,49.7
2019-05-25T10:55:53.952Z,50
2019-05-25T11:00:53.974Z,50.5
2019-05-25T11:05:53.961Z,51
2019-05-25T11:10:53.985Z,47.9
2019-05-25T11:15:54.012Z,48.3
2019-05-25T11:20:53.972Z,46.6
2019-05-25T11:25:54.240Z,46.3
2019-05-25T11:30:54.252Z,45.4
2019-05-25T11:35:54.520Z,44.7
2019-05-25T11:40:54.482Z,49
2019-05-25T11:45:54.747Z,43.6
2019-05-25T11:50:54.714Z,43.1
2019-05-25T11:55:55.865Z,46.9
2019-05-25T12:00:55.452Z,44.8
2019-05-25T12:05:55.487Z,44.4
2019-05-25T12:10:55.524Z,43.1
2019-05-25T12:15:55.523Z,43.5
2019-05-25T12:20:55.548Z,43
2019-05-25T12:25:55.807Z,41.7
2019-05-25T12:30:55.885Z,43
2019-05-25T12:35:55.752Z,45.7
2019-05-25T12:40:55.750Z,44
2019-05-25T12:45:56.150Z,41.8
2019-05-25T12:50:55.908Z,45.3
2019-05-25T12:55:55.770Z,42.2
2019-05-25T13:00:56.474Z,42.8
2019-05-25T13:05:56.041Z,39.9
2019-05-25T13:10:56.233Z,41.9
2019-05-25T13:15:55.985Z,42.7
2019-05-25T13:20:56.112Z,39.4
2019-05-25T13:25:56.036Z,40.3
2019-05-25T13:31:08.914Z,40.7
2019-05-25T13:35:56.045Z,38.4
2019-05-25T13:40:56.075Z,41.7
2019-05-25T13:45:56.033Z,39.4
2019-05-25T13:50:56.023Z,37.7
2019-05-25T13:55:56.167Z,39.7
2019-05-25T14:00:56.035Z,40.7
2019-05-25T14:05:56.032Z,39.6
2019-05-25T14:10:56.040Z,38.2
2019-05-25T14:16:06.489Z,38.4
2019-05-25T14:20:57.476Z,37.6
2019-05-25T14:25:56.909Z,37.4
2019-05-25T14:30:56.893Z,36.9
2019-05-25T14:35:56.755Z,38.6
2019-05-25T14:40:57.337Z,39.2
2019-05-25T14:45:59.393Z,37.2
2019-05-25T14:50:59.102Z,37.9
2019-05-25T14:55:56.630Z,39.5
2019-05-25T15:00:56.817Z,37.5
2019-05-25T15:05:56.584Z,37.2
2019-05-25T15:10:56.578Z,37.5
2019-05-25T15:15:56.638Z,38.3
2019-05-25T15:20:56.585Z,38.5
2019-05-25T15:25:56.559Z,37
2019-05-25T15:30:56.570Z,36.6
2019-05-25T15:35:56.613Z,38.1
2019-05-25T15:40:56.644Z,37.5
2019-05-25T15:45:56.648Z,36.8
2019-05-25T15:50:57.557Z,37.8
2019-05-25T15:55:57.875Z,38.2
2019-05-25T16:00:57.878Z,36.9
2019-05-25T16:05:57.855Z,36.6
2019-05-25T16:10:57.828Z,37.8
2019-05-25T16:15:57.857Z,37.6
2019-05-25T16:20:57.877Z,38
2019-05-25T16:25:58.016Z,37.8
2019-05-25T16:30:57.885Z,39.1
2019-05-25T16:35:58.182Z,39.7
2019-05-25T16:40:57.932Z,38.9
2019-05-25T16:45:58.786Z,38.7
2019-05-25T16:50:58.619Z,38.9
2019-05-25T16:55:59.070Z,40.2
2019-05-25T17:00:58.867Z,39.7
2019-05-25T17:05:58.863Z,40.2
2019-05-25T17:10:58.899Z,40.1
2019-05-25T17:15:58.996Z,40.3
2019-05-25T17:20:59.119Z,41.4
2019-05-25T17:25:58.863Z,42.5
2019-05-25T17:30:58.898Z,42.9
2019-05-25T17:35:58.866Z,42.8
2019-05-25T17:40:59.184Z,42.7
2019-05-25T17:45:59.123Z,43.9
2019-05-25T17:50:59.123Z,44.8
2019-05-25T17:56:00.500Z,44.9
2019-05-25T18:01:00.955Z,45.5
2019-05-25T18:06:01.098Z,46.1
2019-05-25T18:11:01.158Z,47
2019-05-25T18:16:00.959Z,47.4
2019-05-25T18:21:01.008Z,48.3
2019-05-25T18:26:01.024Z,48.8
2019-05-25T18:31:01.512Z,49.7
2019-05-25T18:36:03.131Z,50.1
2019-05-25T18:41:04.295Z,50.1
2019-05-25T18:46:06.327Z,51.1
2019-05-25T18:51:08.205Z,52.1
2019-05-25T18:56:09.604Z,53.5
2019-05-25T19:22:39.686Z,58.9
2019-05-25T19:27:40.381Z,59.1
2019-05-25T19:32:40.555Z,59.6
2019-05-25T19:37:48.644Z,60.1
2019-05-25T19:42:49.893Z,60.1
2019-05-25T19:47:48.630Z,61.1
2019-05-25T19:52:49.268Z,61.5
2019-05-25T19:57:50.836Z,61.9
2019-05-25T20:02:52.876Z,62.5
2019-05-25T20:07:58.593Z,62.8
2019-05-25T20:12:58.642Z,63.4
2019-05-25T20:18:32.641Z,64
2019-05-25T20:23:32.558Z,64.4
2019-05-25T20:28:32.566Z,64.7
2019-05-25T20:33:58.329Z,65.1
2019-05-25T20:39:04.244Z,65.4
2019-05-25T20:44:03.880Z,65.9
2019-05-25T20:49:08.703Z,66.3
2019-05-25T20:54:19.847Z,66.7
2019-05-25T20:59:20.280Z,66.7
2019-05-25T21:04:21.296Z,67
2019-05-25T21:09:21.971Z,67.2
2019-05-25T21:14:22.541Z,67.7
2019-05-25T21:19:23.365Z,67.9
2019-05-25T21:24:20.620Z,68.1
2019-05-25T21:29:21.377Z,68.5
2019-05-25T21:34:21.421Z,68.8
2019-05-25T21:39:21.357Z,69
2019-05-25T21:44:21.356Z,69.3
2019-05-25T21:49:21.394Z,69.7
2019-05-25T21:54:21.390Z,69.7
2019-05-25T21:59:21.380Z,69.9
2019-05-25T22:04:21.359Z,70.4
2019-05-25T22:09:21.521Z,71
2019-05-25T22:14:21.396Z,71.2
2019-05-25T22:19:21.402Z,71.4
2019-05-25T22:24:21.374Z,71.6
2019-05-25T22:29:21.411Z,71.9
2019-05-25T22:34:21.365Z,72.1
2019-05-25T22:39:21.357Z,72.3
2019-05-25T22:44:21.392Z,72.7
2019-05-25T22:49:21.383Z,72.8
2019-05-25T22:54:21.375Z,72.8
2019-05-25T22:59:21.391Z,73.1
2019-05-25T23:04:21.342Z,73.2
2019-05-25T23:09:21.516Z,73.3
2019-05-25T23:14:21.395Z,73.7
2019-05-25T23:19:21.419Z,73.9
2019-05-25T23:24:21.398Z,73.8
2019-05-25T23:29:21.374Z,74
2019-05-25T23:34:21.380Z,74.3
2019-05-25T23:39:21.974Z,74.4
2019-05-25T23:44:22.034Z,74.9
2019-05-25T23:49:22.080Z,75
2019-05-25T23:54:21.966Z,75.1
2019-05-25T23:59:21.973Z,75.4
